createdAt,value
2023-12-03T00:00:37.514Z,14.25
2023-12-03T00:03:04.975Z,14.23
2023-12-03T00:05:31.276Z,14.22
2023-12-03T00:07:57.821Z,14.23
2023-12-03T00:10:24.290Z,14.23
2023-12-03T00:12:50.633Z,14.20
2023-12-03T00:15:16.988Z,14.16
2023-12-03T00:17:43.405Z,14.10
2023-12-03T00:20:09.724Z,14.08
2023-12-03T00:22:35.982Z,14.06
2023-12-03T00:25:02.296Z,14.03
2023-12-03T00:27:28.578Z,14.05
2023-12-03T00:29:55.146Z,14.05
2023-12-03T00:32:21.598Z,14.05
2023-12-03T00:34:47.945Z,13.97
2023-12-03T00:37:14.320Z,13.98
2023-12-03T00:39:40.618Z,14.02
2023-12-03T00:42:06.877Z,13.94
2023-12-03T00:44:33.311Z,13.95
2023-12-03T00:46:59.568Z,13.92
2023-12-03T00:49:26.113Z,13.90
2023-12-03T00:51:52.694Z,13.91
2023-12-03T00:54:19.271Z,13.88
2023-12-03T00:56:45.589Z,13.87
2023-12-03T00:59:11.904Z,13.82
2023-12-03T01:01:38.163Z,13.79
2023-12-03T01:04:04.617Z,13.80
2023-12-03T01:06:30.960Z,13.83
2023-12-03T01:08:57.316Z,13.80
2023-12-03T01:11:34.984Z,13.78
2023-12-03T01:14:03.036Z,13.72
2023-12-03T01:16:29.402Z,13.74
2023-12-03T01:18:55.737Z,13.72
2023-12-03T01:21:22.150Z,13.70
2023-12-03T01:23:48.449Z,13.69
2023-12-03T01:26:14.945Z,13.69
2023-12-03T01:28:41.392Z,13.68
2023-12-03T01:31:07.655Z,13.67
2023-12-03T01:33:34.072Z,13.71
2023-12-03T01:36:00.568Z,13.71
2023-12-03T01:38:27.068Z,13.70
2023-12-03T01:40:53.357Z,13.69
2023-12-03T01:43:19.623Z,13.64
2023-12-03T01:45:45.977Z,13.67
2023-12-03T01:48:12.360Z,13.66
2023-12-03T01:50:38.968Z,13.65
2023-12-03T01:53:05.423Z,13.61
2023-12-03T01:55:31.723Z,13.56
2023-12-03T01:57:57.984Z,13.63
2023-12-03T02:00:24.259Z,13.63
2023-12-03T02:02:50.619Z,13.65
2023-12-03T02:05:16.964Z,13.63
2023-12-03T02:07:43.306Z,13.61
2023-12-03T02:10:09.795Z,13.61
2023-12-03T02:12:36.346Z,13.65
2023-12-03T02:15:02.683Z,13.65
2023-12-03T02:17:29.042Z,13.57
2023-12-03T02:19:55.350Z,13.55
2023-12-03T02:22:21.685Z,13.61
2023-12-03T02:24:47.990Z,13.66
2023-12-03T02:27:14.366Z,13.62
2023-12-03T02:29:40.675Z,13.60
2023-12-03T02:32:07.149Z,13.60
2023-12-03T02:34:33.454Z,13.63
2023-12-03T02:36:59.807Z,13.59
2023-12-03T02:39:26.095Z,13.58
2023-12-03T02:41:52.532Z,13.50
2023-12-03T02:44:18.800Z,13.49
2023-12-03T02:46:45.191Z,13.53
2023-12-03T02:49:11.591Z,13.52
2023-12-03T02:51:37.968Z,13.49
2023-12-03T02:54:04.276Z,13.50
2023-12-03T02:56:30.645Z,13.43
2023-12-03T02:58:56.917Z,13.44
2023-12-03T03:01:23.372Z,13.41
2023-12-03T03:03:50.035Z,13.43
2023-12-03T03:06:16.431Z,13.43
2023-12-03T03:08:42.981Z,13.40
2023-12-03T03:11:09.238Z,13.40
2023-12-03T03:13:35.513Z,13.37
2023-12-03T03:16:01.903Z,13.32
2023-12-03T03:18:28.267Z,13.33
2023-12-03T03:20:54.627Z,13.34
2023-12-03T03:23:20.958Z,13.35
2023-12-03T03:25:47.293Z,13.33
2023-12-03T03:28:13.607Z,13.33
2023-12-03T03:30:39.974Z,13.31
2023-12-03T03:33:06.393Z,13.30
2023-12-03T03:35:32.662Z,13.28
2023-12-03T03:37:58.979Z,13.24
2023-12-03T03:40:25.357Z,13.27
2023-12-03T03:42:52.797Z,13.25
2023-12-03T03:45:19.227Z,13.26
2023-12-03T03:47:45.594Z,13.24
2023-12-03T03:50:11.953Z,13.23
2023-12-03T03:52:38.416Z,13.25
2023-12-03T03:55:04.888Z,13.19
2023-12-03T03:57:31.253Z,13.19
2023-12-03T03:59:57.677Z,13.19
2023-12-03T04:02:23.944Z,13.14
2023-12-03T04:04:50.452Z,13.15
2023-12-03T04:07:16.869Z,13.14
2023-12-03T04:09:43.223Z,13.11
2023-12-03T04:12:09.519Z,13.10
2023-12-03T04:14:35.936Z,13.09
2023-12-03T04:17:02.229Z,13.10
2023-12-03T04:19:28.779Z,13.08
2023-12-03T04:21:55.222Z,13.07
2023-12-03T04:24:21.539Z,13.07
2023-12-03T04:26:47.845Z,13.09
2023-12-03T04:29:14.112Z,13.07
2023-12-03T04:31:40.594Z,13.07
2023-12-03T04:34:07.044Z,13.05
2023-12-03T04:36:33.431Z,13.03
2023-12-03T04:38:59.783Z,13.04
2023-12-03T04:41:26.035Z,13.02
2023-12-03T04:43:52.492Z,12.98
2023-12-03T04:46:18.764Z,13.00
2023-12-03T04:48:45.225Z,12.99
2023-12-03T04:51:11.639Z,12.99
2023-12-03T04:53:38.154Z,13.02
2023-12-03T04:56:04.404Z,13.00
2023-12-03T04:58:30.670Z,12.95
2023-12-03T05:00:57.171Z,12.97
2023-12-03T05:03:23.660Z,12.97
2023-12-03T05:05:49.992Z,12.97
2023-12-03T05:08:16.388Z,12.94
2023-12-03T05:10:42.710Z,12.92
2023-12-03T05:13:09.258Z,12.91
2023-12-03T05:15:35.595Z,12.92
2023-12-03T05:18:01.971Z,12.92
2023-12-03T05:20:28.242Z,12.91
2023-12-03T05:22:54.703Z,12.89
2023-12-03T05:25:21.153Z,12.90
2023-12-03T05:27:47.491Z,12.89
2023-12-03T05:30:13.868Z,12.87
2023-12-03T05:32:40.338Z,12.85
2023-12-03T05:35:06.808Z,12.81
2023-12-03T05:37:33.080Z,12.79
2023-12-03T05:39:59.500Z,12.77
2023-12-03T05:42:26.028Z,12.77
2023-12-03T05:44:52.487Z,12.76
2023-12-03T05:47:18.778Z,12.74
2023-12-03T05:49:45.269Z,12.79
2023-12-03T05:52:11.589Z,12.78
2023-12-03T05:54:37.878Z,12.81
2023-12-03T05:57:04.160Z,12.82
2023-12-03T05:59:30.416Z,12.81
2023-12-03T06:01:56.731Z,12.81
2023-12-03T06:04:23.318Z,12.81
2023-12-03T06:06:49.629Z,12.79
2023-12-03T06:09:16.039Z,12.80
2023-12-03T06:11:42.488Z,12.80
2023-12-03T06:14:08.970Z,12.81
2023-12-03T06:16:35.470Z,12.80
2023-12-03T06:19:02.024Z,12.76
2023-12-03T06:21:28.348Z,12.75
2023-12-03T06:23:54.616Z,12.73
2023-12-03T06:26:20.889Z,12.75
2023-12-03T06:28:47.161Z,12.70
2023-12-03T06:31:13.434Z,12.74
2023-12-03T06:33:39.902Z,12.69
2023-12-03T06:36:06.270Z,12.69
2023-12-03T06:38:32.520Z,12.68
2023-12-03T06:40:58.802Z,12.68
2023-12-03T06:43:25.225Z,12.63
2023-12-03T06:45:51.814Z,12.62
2023-12-03T06:48:18.310Z,12.61
2023-12-03T06:50:46.352Z,12.62
2023-12-03T06:53:12.920Z,12.65
2023-12-03T06:55:39.239Z,12.67
2023-12-03T06:58:05.521Z,12.64
2023-12-03T07:00:31.917Z,12.62
2023-12-03T07:02:58.399Z,12.62
2023-12-03T07:05:24.822Z,12.63
2023-12-03T07:07:51.070Z,12.62
2023-12-03T07:10:17.421Z,12.62
2023-12-03T07:12:43.777Z,12.63
2023-12-03T07:15:10.251Z,12.62
2023-12-03T07:17:36.583Z,12.60
2023-12-03T07:20:02.906Z,12.57
2023-12-03T07:22:29.155Z,12.57
2023-12-03T07:24:55.433Z,12.58
2023-12-03T07:27:21.803Z,12.57
2023-12-03T07:29:48.110Z,12.57
2023-12-03T07:32:14.602Z,12.55
2023-12-03T07:34:40.886Z,12.55
2023-12-03T07:37:07.174Z,12.54
2023-12-03T07:39:33.598Z,12.54
2023-12-03T07:42:00.012Z,12.57
2023-12-03T07:44:26.266Z,12.55
2023-12-03T07:46:52.523Z,12.55
2023-12-03T07:49:18.795Z,12.59
2023-12-03T07:51:45.138Z,12.58
2023-12-03T07:54:11.538Z,12.58
2023-12-03T07:56:37.911Z,12.57
2023-12-03T07:59:04.265Z,12.57
2023-12-03T08:01:30.633Z,12.57
2023-12-03T08:03:56.925Z,12.59
2023-12-03T08:06:23.385Z,12.55
2023-12-03T08:08:49.740Z,12.59
2023-12-03T08:11:18.018Z,12.58
2023-12-03T08:13:44.530Z,12.60
2023-12-03T08:16:10.816Z,12.58
2023-12-03T08:18:37.128Z,12.55
2023-12-03T08:21:03.412Z,12.57
2023-12-03T08:23:29.702Z,12.58
2023-12-03T08:25:56.061Z,12.54
2023-12-03T08:28:22.337Z,12.58
2023-12-03T08:30:48.666Z,12.57
2023-12-03T08:33:15.181Z,12.58
2023-12-03T08:35:41.540Z,12.64
2023-12-03T08:38:07.796Z,12.64
2023-12-03T08:40:34.080Z,12.68
2023-12-03T08:43:00.363Z,12.71
2023-12-03T08:45:26.678Z,12.76
2023-12-03T08:47:52.998Z,12.85
2023-12-03T08:50:19.323Z,12.86
2023-12-03T08:52:45.690Z,12.95
2023-12-03T08:55:11.954Z,12.93
2023-12-03T08:57:38.249Z,12.98
2023-12-03T09:00:04.551Z,12.95
2023-12-03T09:02:30.810Z,12.94
2023-12-03T09:04:57.116Z,13.02
2023-12-03T09:07:23.453Z,13.02
2023-12-03T09:09:49.824Z,13.08
2023-12-03T09:12:16.110Z,13.12
2023-12-03T09:14:42.639Z,13.19
2023-12-03T09:17:08.925Z,13.21
2023-12-03T09:19:35.223Z,13.29
2023-12-03T09:22:01.565Z,13.29
2023-12-03T09:24:27.885Z,13.29
2023-12-03T09:26:54.148Z,13.35
2023-12-03T09:29:20.479Z,13.38
2023-12-03T09:31:46.727Z,13.46
2023-12-03T09:34:13.222Z,13.44
2023-12-03T09:36:39.531Z,13.42
2023-12-03T09:39:05.935Z,13.42
2023-12-03T09:41:32.227Z,13.50
2023-12-03T09:43:58.901Z,13.51
2023-12-03T09:46:25.161Z,13.58
2023-12-03T09:48:51.662Z,13.62
2023-12-03T09:51:17.993Z,13.65
2023-12-03T09:53:44.360Z,13.64
2023-12-03T09:56:10.659Z,13.67
2023-12-03T09:58:36.991Z,13.78
2023-12-03T10:01:03.255Z,13.78
2023-12-03T10:03:29.568Z,13.79
2023-12-03T10:05:55.877Z,13.79
2023-12-03T10:08:22.189Z,13.84
2023-12-03T10:10:48.482Z,13.87
2023-12-03T10:13:14.744Z,13.91
2023-12-03T10:15:41.085Z,13.98
2023-12-03T10:18:07.644Z,14.01
2023-12-03T10:20:33.993Z,14.00
2023-12-03T10:23:00.374Z,14.03
2023-12-03T10:25:26.716Z,14.06
2023-12-03T10:27:53.124Z,14.06
2023-12-03T10:30:19.403Z,14.13
2023-12-03T10:32:45.856Z,14.10
2023-12-03T10:35:12.130Z,14.13
2023-12-03T10:37:38.403Z,14.16
2023-12-03T10:40:04.686Z,14.22
2023-12-03T10:42:30.968Z,14.23
2023-12-03T10:44:57.258Z,14.27
2023-12-03T10:47:23.536Z,14.28
2023-12-03T10:49:50.361Z,14.30
2023-12-03T10:52:16.630Z,14.35
2023-12-03T10:54:42.944Z,14.42
2023-12-03T10:57:09.249Z,14.44
2023-12-03T10:59:35.575Z,14.52
2023-12-03T11:02:02.016Z,14.53
2023-12-03T11:04:28.348Z,14.55
2023-12-03T11:06:54.736Z,14.55
2023-12-03T11:09:21.047Z,14.57
2023-12-03T11:11:47.362Z,14.54
2023-12-03T11:14:13.989Z,14.54
2023-12-03T11:16:40.247Z,14.52
2023-12-03T11:19:06.705Z,14.56
2023-12-03T11:21:33.147Z,14.59
2023-12-03T11:23:59.478Z,14.65
2023-12-03T11:26:25.817Z,14.66
2023-12-03T11:28:54.092Z,14.69
2023-12-03T11:31:21.931Z,14.72
2023-12-03T11:33:48.293Z,14.74
2023-12-03T11:36:14.891Z,14.75
2023-12-03T11:38:41.341Z,14.81
2023-12-03T11:41:07.831Z,14.83
2023-12-03T11:43:34.154Z,14.83
2023-12-03T11:46:00.501Z,14.85
2023-12-03T11:48:26.951Z,14.88
2023-12-03T11:50:53.340Z,14.89
2023-12-03T11:53:19.668Z,14.94
2023-12-03T11:55:46.006Z,15.00
2023-12-03T11:58:12.460Z,14.99
2023-12-03T12:00:38.773Z,15.07
2023-12-03T12:03:05.168Z,15.00
2023-12-03T12:05:31.621Z,15.07
2023-12-03T12:07:58.129Z,15.11
2023-12-03T12:10:24.589Z,15.21
2023-12-03T12:12:51.019Z,15.18
2023-12-03T12:15:17.551Z,15.22
2023-12-03T12:17:43.899Z,15.26
2023-12-03T12:20:19.225Z,15.25
2023-12-03T12:22:48.397Z,15.27
2023-12-03T12:25:14.686Z,15.37
2023-12-03T12:27:41.031Z,15.31
2023-12-03T12:30:17.984Z,15.34
2023-12-03T12:32:53.453Z,15.36
2023-12-03T12:35:19.750Z,15.44
2023-12-03T12:37:46.045Z,15.43
2023-12-03T12:40:12.341Z,15.47
2023-12-03T12:42:38.780Z,15.50
2023-12-03T12:45:05.057Z,15.58
2023-12-03T12:47:31.329Z,15.60
2023-12-03T12:49:57.917Z,15.57
2023-12-03T12:52:24.235Z,15.59
2023-12-03T12:54:50.885Z,15.62
2023-12-03T12:57:17.273Z,15.67
2023-12-03T12:59:43.566Z,15.71
2023-12-03T13:02:09.869Z,15.77
2023-12-03T13:04:36.286Z,15.82
2023-12-03T13:07:02.635Z,15.83
2023-12-03T13:09:28.919Z,15.88
2023-12-03T13:11:55.514Z,15.92
2023-12-03T13:14:21.962Z,15.96
2023-12-03T13:16:48.291Z,15.99
2023-12-03T13:19:14.781Z,16.10
2023-12-03T13:21:41.149Z,16.10
2023-12-03T13:24:12.214Z,16.17
2023-12-03T13:26:45.761Z,16.18
2023-12-03T13:29:12.136Z,16.26
2023-12-03T13:31:38.404Z,16.32
2023-12-03T13:34:04.784Z,16.31
2023-12-03T13:36:31.118Z,16.33
2023-12-03T13:38:57.509Z,16.40
2023-12-03T13:41:23.801Z,16.37
2023-12-03T13:43:50.482Z,16.42
2023-12-03T13:46:16.765Z,16.43
2023-12-03T13:48:43.110Z,16.48
2023-12-03T13:51:09.412Z,16.48
2023-12-03T13:53:35.719Z,16.49
2023-12-03T13:56:02.014Z,16.54
2023-12-03T13:58:28.526Z,16.53
2023-12-03T14:00:54.910Z,16.55
2023-12-03T14:03:21.435Z,16.59
2023-12-03T14:05:47.759Z,16.62
2023-12-03T14:08:14.064Z,16.68
2023-12-03T14:10:40.359Z,16.69
2023-12-03T14:13:06.794Z,16.75
2023-12-03T14:15:33.097Z,16.77
2023-12-03T14:17:59.454Z,16.76
2023-12-03T14:20:25.990Z,16.43
2023-12-03T14:22:52.480Z,16.80
2023-12-03T14:25:18.782Z,16.82
2023-12-03T14:27:45.217Z,16.84
2023-12-03T14:30:11.657Z,16.82
2023-12-03T14:32:37.954Z,16.86
2023-12-03T14:35:04.289Z,16.86
2023-12-03T14:37:30.567Z,16.85
2023-12-03T14:39:56.889Z,16.87
2023-12-03T14:42:23.224Z,16.87
2023-12-03T14:44:49.487Z,16.87
2023-12-03T14:47:15.986Z,16.89
2023-12-03T14:49:42.296Z,16.93
2023-12-03T14:52:08.723Z,16.93
2023-12-03T14:54:35.057Z,16.96
2023-12-03T14:57:01.361Z,16.96
2023-12-03T14:59:27.637Z,16.96
2023-12-03T15:01:54.268Z,16.97
2023-12-03T15:04:20.540Z,16.99
2023-12-03T15:06:46.982Z,17.01
2023-12-03T15:09:13.342Z,17.01
2023-12-03T15:11:41.564Z,17.02
2023-12-03T15:14:08.241Z,17.01
2023-12-03T15:16:34.577Z,17.03
2023-12-03T15:19:00.977Z,17.03
2023-12-03T15:21:27.282Z,17.01
2023-12-03T15:23:53.656Z,17.02
2023-12-03T15:26:19.917Z,17.03
2023-12-03T15:28:46.259Z,17.00
2023-12-03T15:31:12.692Z,17.03
2023-12-03T15:33:39.334Z,17.08
2023-12-03T15:36:05.829Z,17.07
2023-12-03T15:38:32.310Z,17.03
2023-12-03T15:40:58.633Z,17.04
2023-12-03T15:43:33.825Z,17.08
2023-12-03T15:46:05.560Z,17.08
2023-12-03T15:48:32.879Z,17.05
2023-12-03T15:50:59.431Z,17.06
2023-12-03T15:53:25.736Z,17.05
2023-12-03T15:55:52.129Z,17.06
2023-12-03T15:58:18.429Z,17.03
2023-12-03T16:00:44.747Z,17.04
2023-12-03T16:03:11.045Z,17.04
2023-12-03T16:05:37.323Z,17.08
2023-12-03T16:08:03.582Z,17.01
2023-12-03T16:10:29.837Z,17.03
2023-12-03T16:12:56.886Z,16.99
2023-12-03T16:15:23.181Z,17.02
2023-12-03T16:17:49.560Z,17.02
2023-12-03T16:20:15.913Z,17.03
2023-12-03T16:22:42.387Z,17.04
2023-12-03T16:25:08.874Z,17.02
2023-12-03T16:27:35.188Z,17.04
2023-12-03T16:30:01.440Z,17.02
2023-12-03T16:32:27.890Z,17.00
2023-12-03T16:34:54.251Z,16.94
2023-12-03T16:37:20.538Z,16.92
2023-12-03T16:39:46.870Z,16.88
2023-12-03T16:42:13.148Z,16.89
2023-12-03T16:44:39.463Z,16.89
2023-12-03T16:47:05.935Z,16.83
2023-12-03T16:49:32.241Z,16.81
2023-12-03T16:51:58.537Z,16.80
2023-12-03T16:54:24.883Z,16.77
2023-12-03T16:56:51.392Z,16.73
2023-12-03T16:59:18.833Z,16.73
2023-12-03T17:01:46.330Z,16.67
2023-12-03T17:04:12.753Z,16.64
2023-12-03T17:06:39.267Z,16.61
2023-12-03T17:09:05.571Z,16.57
2023-12-03T17:11:31.858Z,16.56
2023-12-03T17:13:58.163Z,16.49
2023-12-03T17:16:24.636Z,16.46
2023-12-03T17:18:51.124Z,16.47
2023-12-03T17:21:17.419Z,16.47
2023-12-03T17:23:43.774Z,16.45
2023-12-03T17:26:10.028Z,16.44
2023-12-03T17:28:36.290Z,16.42
2023-12-03T17:31:02.686Z,16.39
2023-12-03T17:33:29.336Z,16.39
2023-12-03T17:35:56.934Z,16.38
2023-12-03T17:38:23.442Z,16.36
2023-12-03T17:40:49.736Z,16.30
2023-12-03T17:43:16.148Z,16.32
2023-12-03T17:45:42.684Z,16.29
2023-12-03T17:48:09.159Z,16.30
2023-12-03T17:50:35.475Z,16.27
2023-12-03T17:53:01.857Z,16.25
2023-12-03T17:55:28.344Z,16.23
2023-12-03T17:57:54.677Z,16.27
2023-12-03T18:00:21.065Z,16.26
2023-12-03T18:02:47.343Z,16.24
2023-12-03T18:05:13.698Z,16.23
2023-12-03T18:07:39.984Z,16.19
2023-12-03T18:10:06.276Z,16.15
2023-12-03T18:12:32.753Z,16.13
2023-12-03T18:14:59.367Z,16.09
2023-12-03T18:17:25.704Z,16.01
2023-12-03T18:19:52.140Z,15.99
2023-12-03T18:22:18.430Z,16.01
2023-12-03T18:24:44.702Z,16.02
2023-12-03T18:27:10.984Z,15.98
2023-12-03T18:29:37.253Z,16.00
2023-12-03T18:32:03.509Z,15.99
2023-12-03T18:34:30.048Z,15.96
2023-12-03T18:36:56.463Z,15.94
2023-12-03T18:39:22.914Z,15.93
2023-12-03T18:41:49.165Z,15.91
2023-12-03T18:44:15.618Z,15.91
2023-12-03T18:46:41.868Z,15.88
2023-12-03T18:49:08.205Z,15.88
2023-12-03T18:51:34.625Z,15.85
2023-12-03T18:54:01.069Z,15.79
2023-12-03T18:56:27.320Z,15.80
2023-12-03T18:58:53.788Z,15.79
2023-12-03T19:01:20.086Z,15.73
2023-12-03T19:03:46.556Z,15.73
2023-12-03T19:06:12.854Z,15.67
2023-12-03T19:08:40.061Z,15.66
2023-12-03T19:11:06.464Z,15.67
2023-12-03T19:13:33.001Z,15.64
2023-12-03T19:15:59.628Z,15.63
2023-12-03T19:18:25.928Z,15.56
2023-12-03T19:20:52.228Z,15.55
2023-12-03T19:23:18.559Z,15.56
2023-12-03T19:25:44.886Z,15.54
2023-12-03T19:28:11.133Z,15.55
2023-12-03T19:30:37.395Z,15.52
2023-12-03T19:33:03.643Z,15.52
2023-12-03T19:35:29.895Z,15.45
2023-12-03T19:37:56.400Z,15.42
2023-12-03T19:40:22.721Z,15.42
2023-12-03T19:42:49.094Z,15.38
2023-12-03T19:45:15.385Z,15.35
2023-12-03T19:47:41.756Z,15.36
2023-12-03T19:50:08.083Z,15.34
2023-12-03T19:52:34.387Z,15.31
2023-12-03T19:55:00.801Z,15.27
2023-12-03T19:57:27.126Z,15.30
2023-12-03T19:59:53.725Z,15.29
2023-12-03T20:02:20.015Z,15.26
2023-12-03T20:04:46.450Z,15.24
2023-12-03T20:07:12.990Z,15.23
2023-12-03T20:09:39.374Z,15.25
2023-12-03T20:12:05.691Z,15.32
2023-12-03T20:14:31.983Z,15.48
2023-12-03T20:16:58.650Z,15.52
2023-12-03T20:19:25.144Z,15.60
2023-12-03T20:21:51.497Z,15.70
2023-12-03T20:24:18.010Z,15.69
2023-12-03T20:26:44.401Z,15.75
2023-12-03T20:29:10.652Z,15.71
2023-12-03T20:31:36.910Z,15.72
2023-12-03T20:34:03.376Z,15.69
2023-12-03T20:36:29.728Z,15.71
2023-12-03T20:38:56.776Z,15.71
2023-12-03T20:41:23.103Z,15.31
2023-12-03T20:43:49.579Z,15.70
2023-12-03T20:46:16.065Z,15.71
2023-12-03T20:48:42.395Z,15.75
2023-12-03T20:51:08.740Z,15.70
2023-12-03T20:53:35.262Z,15.74
2023-12-03T20:56:03.106Z,15.72
2023-12-03T20:58:29.373Z,15.78
2023-12-03T21:00:56.516Z,15.86
2023-12-03T21:03:22.795Z,15.91
2023-12-03T21:05:49.121Z,15.88
2023-12-03T21:08:15.402Z,15.89
2023-12-03T21:10:41.642Z,15.88
2023-12-03T21:13:07.963Z,15.80
2023-12-03T21:15:34.323Z,15.78
2023-12-03T21:18:00.694Z,15.79
2023-12-03T21:20:27.233Z,15.76
2023-12-03T21:22:53.702Z,15.69
2023-12-03T21:25:19.985Z,15.65
2023-12-03T21:27:46.389Z,15.60
2023-12-03T21:30:12.727Z,15.62
2023-12-03T21:32:39.278Z,15.65
2023-12-03T21:35:05.629Z,15.62
2023-12-03T21:37:31.920Z,15.62
2023-12-03T21:39:58.266Z,15.63
2023-12-03T21:42:24.557Z,15.65
2023-12-03T21:44:51.354Z,15.67
2023-12-03T21:47:17.758Z,15.65
2023-12-03T21:49:44.032Z,15.62
2023-12-03T21:52:10.384Z,15.58
2023-12-03T21:54:36.751Z,15.51
2023-12-03T21:57:03.024Z,15.50
2023-12-03T21:59:29.375Z,15.42
2023-12-03T22:01:55.660Z,15.39
2023-12-03T22:04:21.979Z,15.36
2023-12-03T22:06:48.292Z,15.35
2023-12-03T22:09:16.434Z,15.34
2023-12-03T22:11:43.500Z,15.26
2023-12-03T22:14:09.972Z,15.26
2023-12-03T22:16:36.252Z,15.22
2023-12-03T22:19:02.624Z,15.21
2023-12-03T22:21:29.070Z,15.23
2023-12-03T22:23:55.435Z,15.15
2023-12-03T22:26:21.703Z,15.14
2023-12-03T22:28:47.970Z,15.12
2023-12-03T22:31:14.372Z,15.08
2023-12-03T22:33:40.810Z,15.05
2023-12-03T22:36:07.140Z,15.03
2023-12-03T22:38:33.504Z,15.00
2023-12-03T22:41:00.196Z,15.00
2023-12-03T22:43:26.490Z,14.98
2023-12-03T22:45:52.777Z,14.92
2023-12-03T22:48:19.045Z,14.93
2023-12-03T22:50:45.475Z,14.91
2023-12-03T22:53:11.717Z,14.86
2023-12-03T22:55:37.961Z,14.85
2023-12-03T22:58:04.381Z,14.81
2023-12-03T23:00:30.843Z,14.78
2023-12-03T23:02:57.330Z,14.81
2023-12-03T23:05:31.646Z,14.80
2023-12-03T23:08:01.610Z,14.81
2023-12-03T23:10:28.043Z,14.78
2023-12-03T23:12:54.628Z,14.68
2023-12-03T23:15:20.989Z,14.70
2023-12-03T23:17:47.378Z,14.72
2023-12-03T23:20:13.771Z,14.73
2023-12-03T23:22:40.167Z,14.70
2023-12-03T23:25:06.502Z,14.72
2023-12-03T23:27:32.866Z,14.70
2023-12-03T23:29:59.351Z,14.70
2023-12-03T23:32:25.869Z,14.64
2023-12-03T23:34:52.187Z,14.63
2023-12-03T23:37:18.496Z,14.62
2023-12-03T23:39:44.806Z,14.63
2023-12-03T23:42:11.098Z,14.61
2023-12-03T23:44:37.357Z,14.59
2023-12-03T23:47:03.707Z,14.58
2023-12-03T23:49:30.211Z,14.57
2023-12-03T23:51:56.752Z,14.55
2023-12-03T23:54:23.073Z,14.54
2023-12-03T23:56:49.330Z,14.54
2023-12-03T23:59:15.595Z,14.54
